Time;durP1;ratioP1;P1;durP2;ratioP2;P2;SDS_P1;SDS_P2;PMS_P1;PMS_P2;Temp;Humidity;BMP_temperature;BMP_pressure;BME280_temperature;BME280_humidity;BME280_pressure;Samples;Min_cycle;Max_cycle;Signal;HPM_P1;HPM_P2
2023/02/05 00:01:54;;;;;;;;;;;;;;;-0.19;100.00;98522.06;5003012;28;19924;-70
2023/02/05 00:04:19;;;;;;;;;;;;;;;-0.25;100.00;98513.09;4994057;28;20379;-66
2023/02/05 00:06:45;;;;;;;;;;;;;;;-0.18;100.00;98512.91;4997312;28;19956;-67
2023/02/05 00:09:10;;;;;;;;;;;;;;;-0.05;100.00;98517.91;5006170;28;19960;-67
2023/02/05 00:11:36;;;;;;;;;;;;;;;-0.05;100.00;98520.59;5021830;28;19943;-67
2023/02/05 00:14:01;;;;;;;;;;;;;;;0.17;100.00;98515.16;5020919;28;20020;-68
2023/02/05 00:16:27;;;;;;;;;;;;;;;0.15;100.00;98528.06;5018951;28;19917;-68
2023/02/05 00:18:55;;;;;;;;;;;;;;;0.36;100.00;98525.56;5021407;28;20355;-68
2023/02/05 00:21:21;;;;;;;;;;;;;;;0.30;100.00;98515.81;5013797;28;20334;-68
2023/02/05 00:23:46;;;;;;;;;;;;;;;0.32;100.00;98511.78;5018677;28;20020;-68
2023/02/05 00:26:13;;;;;;;;;;;;;;;0.36;100.00;98521.00;4997031;28;20028;-68
2023/02/05 00:28:38;;;;;;;;;;;;;;;0.25;100.00;98513.06;5002519;28;20012;-68
2023/02/05 00:31:11;;;;;;;;;;;;;;;0.17;100.00;98511.66;4998314;28;20041;-70
2023/02/05 00:33:37;;;;;;;;;;;;;;;0.34;100.00;98508.84;5001973;28;20267;-67
2023/02/05 00:36:02;;;;;;;;;;;;;;;0.40;100.00;98509.69;4999349;28;19929;-69
2023/02/05 00:38:27;;;;;;;;;;;;;;;0.16;100.00;98516.25;4999832;28;19970;-68
2023/02/05 00:40:53;;;;;;;;;;;;;;;0.05;100.00;98505.59;5000403;28;20360;-68
2023/02/05 00:43:18;;;;;;;;;;;;;;;-0.01;100.00;98516.31;4997770;28;19971;-67
2023/02/05 00:45:43;;;;;;;;;;;;;;;-0.03;100.00;98509.56;5001446;28;20314;-68
2023/02/05 00:48:08;;;;;;;;;;;;;;;-0.05;100.00;98512.50;4996491;28;19964;-68
2023/02/05 00:50:34;;;;;;;;;;;;;;;-0.16;100.00;98512.63;5002908;28;19937;-67
2023/02/05 00:52:59;;;;;;;;;;;;;;;-0.35;100.00;98504.91;5003349;28;19924;-67
2023/02/05 00:55:25;;;;;;;;;;;;;;;-0.47;100.00;98505.03;4998139;28;19925;-68
2023/02/05 00:57:50;;;;;;;;;;;;;;;-0.37;100.00;98515.09;5003015;28;19929;-69
2023/02/05 01:00:16;;;;;;;;;;;;;;;-0.20;100.00;98507.78;5001729;28;19922;-68
2023/02/05 01:02:41;;;;;;;;;;;;;;;-0.10;100.00;98512.47;5007554;28;19968;-70
2023/02/05 01:05:06;;;;;;;;;;;;;;;-0.05;100.00;98511.72;4995703;28;19924;-69
2023/02/05 01:07:32;;;;;;;;;;;;;;;-0.04;100.00;98518.72;5016674;28;19921;-69
2023/02/05 01:09:57;;;;;;;;;;;;;;;0.18;100.00;98508.72;5017019;28;19987;-68
2023/02/05 01:12:23;;;;;;;;;;;;;;;0.16;100.00;98510.84;5032524;28;20470;-68
2023/02/05 01:14:48;;;;;;;;;;;;;;;-0.04;100.00;98511.47;5021679;28;19921;-69
2023/02/05 01:17:14;;;;;;;;;;;;;;;-0.01;100.00;98510.94;5016421;28;19917;-67
2023/02/05 01:19:39;;;;;;;;;;;;;;;0.08;100.00;98511.31;5021953;28;20407;-68
2023/02/05 01:22:05;;;;;;;;;;;;;;;0.02;100.00;98524.97;5035714;28;19923;-70
2023/02/05 01:24:31;;;;;;;;;;;;;;;-0.03;100.00;98525.75;5015306;28;19921;-69
2023/02/05 01:26:57;;;;;;;;;;;;;;;0.13;100.00;98516.75;5005709;28;20376;-68
2023/02/05 01:29:23;;;;;;;;;;;;;;;0.19;100.00;98513.03;5002626;28;20416;-67
2023/02/05 01:31:49;;;;;;;;;;;;;;;0.04;100.00;98522.81;5006241;28;20366;-68
2023/02/05 01:34:14;;;;;;;;;;;;;;;-0.13;100.00;98512.16;5001443;28;19953;-68
2023/02/05 01:36:39;;;;;;;;;;;;;;;-0.32;100.00;98525.94;5004759;28;19963;-68
2023/02/05 01:39:04;;;;;;;;;;;;;;;-0.30;100.00;98515.72;5000361;28;19922;-68
2023/02/05 01:41:30;;;;;;;;;;;;;;;-0.28;100.00;98518.97;5005035;28;20513;-67
2023/02/05 01:44:06;;;;;;;;;;;;;;;-0.36;100.00;98518.59;5005823;28;19917;-68
2023/02/05 01:46:33;;;;;;;;;;;;;;;-0.21;100.00;98527.69;5004162;28;19921;-68
2023/02/05 01:48:59;;;;;;;;;;;;;;;-0.06;100.00;98520.84;5005387;28;20320;-68
2023/02/05 01:51:27;;;;;;;;;;;;;;;-0.19;100.00;98508.59;5000461;28;19921;-68
2023/02/05 01:53:52;;;;;;;;;;;;;;;-0.33;100.00;98516.22;5005408;28;20314;-69
2023/02/05 01:56:21;;;;;;;;;;;;;;;-0.45;100.00;98512.84;4999184;28;20103;-68
2023/02/05 01:58:53;;;;;;;;;;;;;;;-0.39;100.00;98506.47;5003895;28;19925;-68
2023/02/05 02:01:18;;;;;;;;;;;;;;;-0.35;100.00;98507.59;5000812;28;19925;-67
2023/02/05 02:03:44;;;;;;;;;;;;;;;-0.35;100.00;98501.41;4998424;28;20391;-67
2023/02/05 02:06:09;;;;;;;;;;;;;;;-0.35;100.00;98494.13;4999466;28;20020;-68
2023/02/05 02:08:35;;;;;;;;;;;;;;;-0.35;100.00;98499.50;5009960;28;19918;-68
2023/02/05 02:11:02;;;;;;;;;;;;;;;-0.46;100.00;98489.69;5024885;28;19917;-69
2023/02/05 02:13:30;;;;;;;;;;;;;;;-0.66;100.00;98491.06;5019309;28;19931;-68
2023/02/05 02:15:56;;;;;;;;;;;;;;;-0.85;100.00;98495.91;5022445;28;19921;-69
2023/02/05 02:18:25;;;;;;;;;;;;;;;-1.02;100.00;98495.97;5019746;28;19924;-68
2023/02/05 02:21:11;;;;;;;;;;;;;;;-1.14;100.00;98487.16;5023674;28;20368;-69
2023/02/05 02:23:51;;;;;;;;;;;;;;;-1.18;100.00;98480.66;5025791;28;19964;-69
2023/02/05 02:26:38;;;;;;;;;;;;;;;-1.36;100.00;98484.44;5018347;28;20274;-68
2023/02/05 02:29:03;;;;;;;;;;;;;;;-1.38;100.00;98471.22;5022568;28;19921;-70
2023/02/05 02:31:29;;;;;;;;;;;;;;;-1.38;100.00;98463.16;5023292;28;19917;-68
2023/02/05 02:34:00;;;;;;;;;;;;;;;-1.42;100.00;98474.66;5010331;28;19921;-69
2023/02/05 02:36:28;;;;;;;;;;;;;;;-1.50;100.00;98465.13;5000199;28;19921;-69
2023/02/05 02:39:00;;;;;;;;;;;;;;;-1.57;100.00;98465.31;5003573;28;19953;-69
2023/02/05 02:41:51;;;;;;;;;;;;;;;-1.62;100.00;98465.22;4999981;28;19922;-68
2023/02/05 02:44:32;;;;;;;;;;;;;;;-1.64;100.00;98461.97;4999097;28;20018;-68
2023/02/05 02:47:00;;;;;;;;;;;;;;;-1.59;100.00;98453.97;5004065;28;19955;-68
2023/02/05 02:49:35;;;;;;;;;;;;;;;-1.60;100.00;98451.53;4999516;28;19928;-67
2023/02/05 02:52:02;;;;;;;;;;;;;;;-1.69;100.00;98450.28;5004073;28;19937;-66
2023/02/05 02:54:28;;;;;;;;;;;;;;;-1.65;100.00;98457.63;5001193;28;20428;-67
2023/02/05 02:56:55;;;;;;;;;;;;;;;-1.70;100.00;98460.25;5002073;28;20012;-67
2023/02/05 02:59:27;;;;;;;;;;;;;;;-1.69;100.00;98463.72;4998256;28;20475;-67
2023/02/05 03:01:54;;;;;;;;;;;;;;;-1.74;100.00;98451.03;5003044;28;19925;-67
2023/02/05 03:04:23;;;;;;;;;;;;;;;-1.77;100.00;98451.53;4994357;28;19922;-67
2023/02/05 03:06:51;;;;;;;;;;;;;;;-1.63;100.00;98447.47;5002443;28;19919;-67
2023/02/05 03:09:45;;;;;;;;;;;;;;;-1.55;100.00;98436.31;5010513;28;20015;-67
2023/02/05 03:12:10;;;;;;;;;;;;;;;-1.57;100.00;98442.97;5032884;28;19917;-67
2023/02/05 03:14:36;;;;;;;;;;;;;;;-1.67;100.00;98426.72;5023239;28;19921;-67
2023/02/05 03:17:02;;;;;;;;;;;;;;;-1.74;100.00;98427.66;5021862;28;20381;-68
2023/02/05 03:19:27;;;;;;;;;;;;;;;-1.87;100.00;98427.16;5020812;28;20142;-66
2023/02/05 03:21:58;;;;;;;;;;;;;;;-2.04;100.00;98424.47;5023572;28;19921;-67
2023/02/05 03:24:23;;;;;;;;;;;;;;;-2.08;100.00;98417.97;5018108;28;19956;-67
2023/02/05 03:26:49;;;;;;;;;;;;;;;-2.05;100.00;98431.72;5022310;28;19924;-66
2023/02/05 03:29:16;;;;;;;;;;;;;;;-2.00;100.00;98423.78;5018101;28;20354;-67
2023/02/05 03:32:00;;;;;;;;;;;;;;;-1.85;100.00;98422.41;5022853;28;19940;-67
2023/02/05 03:34:44;;;;;;;;;;;;;;;-1.68;100.00;98417.00;5018455;28;19975;-67
2023/02/05 03:37:20;;;;;;;;;;;;;;;-1.59;100.00;98412.84;4992340;28;19921;-67
2023/02/05 03:40:18;;;;;;;;;;;;;;;-1.56;100.00;98421.22;5006905;28;19921;-67
2023/02/05 03:43:03;;;;;;;;;;;;;;;-1.48;100.00;98409.25;4990026;28;19940;-66
2023/02/05 03:45:51;;;;;;;;;;;;;;;-1.42;100.00;98412.84;4974012;28;20321;-67
2023/02/05 03:48:19;;;;;;;;;;;;;;;-1.38;100.00;98419.34;4982569;28;19922;-67
2023/02/05 03:50:51;;;;;;;;;;;;;;;-1.45;100.00;98416.81;5009767;28;20294;-67
2023/02/05 03:53:21;;;;;;;;;;;;;;;-1.34;100.00;98409.72;4992484;28;20472;-66
2023/02/05 03:55:51;;;;;;;;;;;;;;;-1.45;100.00;98407.97;4998418;28;19925;-67
2023/02/05 03:58:26;;;;;;;;;;;;;;;-1.68;100.00;98414.31;5018716;28;20417;-67
2023/02/05 04:00:51;;;;;;;;;;;;;;;-1.73;100.00;98409.69;4977863;28;20377;-67
2023/02/05 04:03:17;;;;;;;;;;;;;;;-1.59;100.00;98402.91;4996623;28;19926;-66
2023/02/05 04:05:48;;;;;;;;;;;;;;;-1.56;100.00;98405.09;4992811;28;19932;-67
2023/02/05 04:08:19;;;;;;;;;;;;;;;-1.57;100.00;98411.56;4981061;28;19921;-68
2023/02/05 04:11:02;;;;;;;;;;;;;;;-1.58;100.00;98419.88;4994980;28;19921;-68
2023/02/05 04:13:30;;;;;;;;;;;;;;;-1.59;100.00;98416.34;4973874;28;19976;-70
2023/02/05 04:16:07;;;;;;;;;;;;;;;-1.48;100.00;98413.81;5012213;28;20358;-66
2023/02/05 04:18:33;;;;;;;;;;;;;;;-1.45;100.00;98416.03;4966233;28;19921;-67
2023/02/05 04:21:01;;;;;;;;;;;;;;;-1.40;100.00;98418.78;4998711;28;19921;-67
2023/02/05 04:23:38;;;;;;;;;;;;;;;-1.50;100.00;98416.75;5004739;28;19921;-66
2023/02/05 04:26:26;;;;;;;;;;;;;;;-1.58;100.00;98414.50;4995151;28;19975;-67
2023/02/05 04:28:51;;;;;;;;;;;;;;;-1.73;100.00;98405.13;4995908;28;20407;-67
2023/02/05 04:31:19;;;;;;;;;;;;;;;-1.80;100.00;98407.16;4989578;28;19935;-67
2023/02/05 04:33:47;;;;;;;;;;;;;;;-1.77;100.00;98401.28;5001457;28;20514;-68
2023/02/05 04:36:13;;;;;;;;;;;;;;;-2.02;100.00;98409.75;4982908;28;19924;-67
2023/02/05 04:38:38;;;;;;;;;;;;;;;-2.20;100.00;98408.09;5012245;28;20078;-68
2023/02/05 04:41:07;;;;;;;;;;;;;;;-2.15;100.00;98410.88;4974200;28;19937;-67
2023/02/05 04:43:35;;;;;;;;;;;;;;;-2.07;100.00;98409.69;4980870;28;19918;-68
2023/02/05 04:46:10;;;;;;;;;;;;;;;-2.07;100.00;98415.06;5000379;28;19947;-67
2023/02/05 04:48:41;;;;;;;;;;;;;;;-2.18;100.00;98413.22;4997468;28;19932;-67
2023/02/05 04:51:11;;;;;;;;;;;;;;;-2.23;100.00;98413.13;4990024;28;20313;-66
2023/02/05 04:53:43;;;;;;;;;;;;;;;-2.13;100.00;98421.38;4999091;28;20012;-67
2023/02/05 04:56:15;;;;;;;;;;;;;;;-1.95;100.00;98417.66;4978396;28;19925;-66
2023/02/05 04:58:43;;;;;;;;;;;;;;;-1.90;100.00;98404.31;5004385;28;20791;-66
2023/02/05 05:01:15;;;;;;;;;;;;;;;-2.12;100.00;98393.47;4994147;28;20288;-67
2023/02/05 05:03:41;;;;;;;;;;;;;;;-2.41;100.00;98385.47;5000547;28;20067;-67
2023/02/05 05:06:16;;;;;;;;;;;;;;;-2.51;100.00;98387.97;4986918;28;19967;-65
2023/02/05 05:08:49;;;;;;;;;;;;;;;-2.43;100.00;98392.13;4999970;28;19932;-65
2023/02/05 05:11:20;;;;;;;;;;;;;;;-2.25;100.00;98391.94;5007911;28;19961;-65
2023/02/05 05:13:48;;;;;;;;;;;;;;;-2.26;100.00;98389.47;5012943;28;19975;-65
2023/02/05 05:16:23;;;;;;;;;;;;;;;-2.17;100.00;98407.63;4990870;28;19953;-68
2023/02/05 05:18:51;;;;;;;;;;;;;;;-1.90;100.00;98409.69;5009501;28;19979;-65
2023/02/05 05:21:19;;;;;;;;;;;;;;;-1.81;100.00;98405.53;5003748;28;19925;-68
2023/02/05 05:23:47;;;;;;;;;;;;;;;-1.87;100.00;98408.38;5004681;28;19921;-66
2023/02/05 05:26:15;;;;;;;;;;;;;;;-1.96;100.00;98405.31;4989120;28;19925;-66
2023/02/05 05:28:40;;;;;;;;;;;;;;;-1.84;100.00;98405.19;5006613;28;19925;-66
2023/02/05 05:31:08;;;;;;;;;;;;;;;-1.80;100.00;98396.44;5000019;28;19939;-66
2023/02/05 05:33:34;;;;;;;;;;;;;;;-1.88;100.00;98394.13;4999808;28;19968;-67
2023/02/05 05:36:00;;;;;;;;;;;;;;;-2.10;100.00;98396.75;5004671;28;19996;-66
2023/02/05 05:38:25;;;;;;;;;;;;;;;-2.21;100.00;98401.13;5003245;28;19928;-67
2023/02/05 05:43:47;;;;;;;;;;;;;;;-1.84;100.00;98416.75;5002169;28;19917;-67
2023/02/05 05:46:23;;;;;;;;;;;;;;;-1.82;100.00;98408.47;4996784;28;19920;-67
2023/02/05 05:48:52;;;;;;;;;;;;;;;-1.83;100.00;98410.34;4982767;28;19941;-65
2023/02/05 05:51:18;;;;;;;;;;;;;;;-1.85;100.00;98417.03;4986816;28;19926;-65
2023/02/05 05:53:46;;;;;;;;;;;;;;;-1.85;100.00;98411.66;5013170;28;19929;-66
2023/02/05 05:56:14;;;;;;;;;;;;;;;-1.93;100.00;98416.38;4991508;28;19922;-66
2023/02/05 05:58:40;;;;;;;;;;;;;;;-1.97;100.00;98409.03;5008742;28;20645;-65
2023/02/05 06:01:09;;;;;;;;;;;;;;;-2.09;100.00;98409.09;4996718;28;19932;-66
2023/02/05 06:03:38;;;;;;;;;;;;;;;-2.18;100.00;98414.06;4997809;28;20338;-66
2023/02/05 06:06:12;;;;;;;;;;;;;;;-2.19;100.00;98419.66;5028394;28;20206;-65
2023/02/05 06:08:38;;;;;;;;;;;;;;;-2.17;100.00;98422.91;5027071;28;19925;-65
2023/02/05 06:11:04;;;;;;;;;;;;;;;-2.18;100.00;98424.81;5004353;28;19983;-66
2023/02/05 06:13:33;;;;;;;;;;;;;;;-2.19;100.00;98425.03;5009429;28;19921;-66
2023/02/05 06:15:59;;;;;;;;;;;;;;;-2.24;100.00;98428.44;5011452;28;19963;-65
2023/02/05 06:18:27;;;;;;;;;;;;;;;-2.50;100.00;98432.53;4999499;28;19997;-68
2023/02/05 06:20:55;;;;;;;;;;;;;;;-2.75;100.00;98435.53;5019974;28;19928;-68
2023/02/05 06:23:23;;;;;;;;;;;;;;;-2.88;100.00;98444.66;4999108;28;20474;-65
2023/02/05 06:25:54;;;;;;;;;;;;;;;-2.87;100.00;98451.63;5012609;28;20008;-67
2023/02/05 06:28:25;;;;;;;;;;;;;;;-2.93;100.00;98453.41;5008096;28;20023;-67
2023/02/05 06:30:50;;;;;;;;;;;;;;;-2.94;100.00;98450.94;5008572;28;19924;-67
2023/02/05 06:33:18;;;;;;;;;;;;;;;-2.89;100.00;98449.19;5003572;28;19957;-65
2023/02/05 06:35:47;;;;;;;;;;;;;;;-2.86;100.00;98439.88;4995269;28;19929;-65
2023/02/05 06:38:15;;;;;;;;;;;;;;;-2.75;100.00;98438.22;4995951;28;19921;-65
2023/02/05 06:40:49;;;;;;;;;;;;;;;-2.65;100.00;98434.91;4980253;28;19933;-65
2023/02/05 06:43:15;;;;;;;;;;;;;;;-2.59;100.00;98448.19;5014846;28;19985;-66
2023/02/05 06:45:40;;;;;;;;;;;;;;;-2.44;100.00;98441.50;5036992;28;19960;-65
2023/02/05 06:48:06;;;;;;;;;;;;;;;-2.31;100.00;98449.25;4991462;28;19917;-66
2023/02/05 06:50:40;;;;;;;;;;;;;;;-2.55;100.00;98448.53;5012407;28;19917;-67
2023/02/05 06:53:13;;;;;;;;;;;;;;;-2.58;100.00;98449.00;4986179;28;20015;-67
2023/02/05 06:55:38;;;;;;;;;;;;;;;-2.67;100.00;98456.59;4985559;28;19926;-66
2023/02/05 06:58:07;;;;;;;;;;;;;;;-2.62;100.00;98454.03;5010491;28;19975;-65
2023/02/05 07:00:33;;;;;;;;;;;;;;;-2.47;100.00;98450.81;5003326;28;19922;-65
2023/02/05 07:02:58;;;;;;;;;;;;;;;-2.28;100.00;98451.44;5009752;28;19936;-66
2023/02/05 07:05:26;;;;;;;;;;;;;;;-2.44;100.00;98447.66;4995795;28;19925;-66
2023/02/05 07:07:54;;;;;;;;;;;;;;;-2.45;100.00;98450.56;5010815;28;19917;-66
2023/02/05 07:10:20;;;;;;;;;;;;;;;-2.40;100.00;98448.00;4995142;28;19968;-65
2023/02/05 07:12:48;;;;;;;;;;;;;;;-2.33;100.00;98444.09;5009174;28;19925;-66
2023/02/05 07:15:15;;;;;;;;;;;;;;;-2.23;100.00;98445.34;5005292;28;19926;-67
2023/02/05 07:17:51;;;;;;;;;;;;;;;-2.01;100.00;98451.66;5029877;28;19924;-67
2023/02/05 07:20:17;;;;;;;;;;;;;;;-1.66;100.00;98458.69;5016880;28;20087;-68
2023/02/05 07:22:45;;;;;;;;;;;;;;;-1.20;100.00;98456.72;5021820;28;19962;-67
2023/02/05 07:25:11;;;;;;;;;;;;;;;-0.74;100.00;98442.25;5005354;28;19978;-67
2023/02/05 07:27:39;;;;;;;;;;;;;;;-0.49;100.00;98447.13;5018135;28;19921;-67
2023/02/05 07:30:11;;;;;;;;;;;;;;;-0.24;100.00;98450.09;4982802;28;20053;-65
2023/02/05 07:32:39;;;;;;;;;;;;;;;0.22;100.00;98454.28;5008826;28;20035;-66
2023/02/05 07:35:04;;;;;;;;;;;;;;;0.61;100.00;98459.47;4999200;28;19968;-67
2023/02/05 07:37:30;;;;;;;;;;;;;;;0.66;100.00;98459.50;5013476;28;19966;-66
2023/02/05 07:39:55;;;;;;;;;;;;;;;0.92;100.00;98455.09;5010093;28;19928;-66
2023/02/05 07:42:21;;;;;;;;;;;;;;;1.16;100.00;98458.19;5009915;28;20835;-66
2023/02/05 07:44:49;;;;;;;;;;;;;;;1.38;100.00;98471.53;4996711;28;19921;-65
2023/02/05 07:47:17;;;;;;;;;;;;;;;1.52;100.00;98469.97;5012132;28;19935;-65
2023/02/05 07:49:43;;;;;;;;;;;;;;;1.59;100.00;98475.13;5017058;28;19927;-66
2023/02/05 07:52:11;;;;;;;;;;;;;;;1.58;100.00;98473.50;4989380;28;20015;-66
2023/02/05 07:54:40;;;;;;;;;;;;;;;1.64;100.00;98485.97;5009015;28;20352;-66
2023/02/05 07:57:05;;;;;;;;;;;;;;;1.69;100.00;98488.69;4993988;28;19924;-67
2023/02/05 07:59:31;;;;;;;;;;;;;;;1.69;100.00;98494.09;5019258;28;19928;-66
2023/02/05 08:02:01;;;;;;;;;;;;;;;1.57;100.00;98485.38;4996311;28;20002;-67
2023/02/05 08:04:36;;;;;;;;;;;;;;;1.83;100.00;98488.97;5003340;28;20082;-66
2023/02/05 08:07:02;;;;;;;;;;;;;;;2.00;100.00;98486.06;5029988;28;19916;-67
2023/02/05 08:09:30;;;;;;;;;;;;;;;1.88;100.00;98480.09;5027920;28;19917;-66
2023/02/05 08:11:58;;;;;;;;;;;;;;;1.65;100.00;98476.75;5002076;28;19929;-67
2023/02/05 08:14:30;;;;;;;;;;;;;;;1.63;100.00;98478.13;4989598;28;21111;-66
2023/02/05 08:16:57;;;;;;;;;;;;;;;1.72;100.00;98477.31;4999696;28;19971;-67
2023/02/05 08:19:23;;;;;;;;;;;;;;;1.74;100.00;98478.97;5003935;28;21277;-67
2023/02/05 08:21:52;;;;;;;;;;;;;;;1.79;100.00;98478.97;5017071;28;19965;-67
2023/02/05 08:24:22;;;;;;;;;;;;;;;1.73;100.00;98472.75;5014310;28;19921;-66
2023/02/05 08:26:50;;;;;;;;;;;;;;;1.69;100.00;98480.59;5010745;28;20021;-66
2023/02/05 08:29:19;;;;;;;;;;;;;;;1.41;100.00;98481.81;5008649;28;19921;-66
2023/02/05 08:31:47;;;;;;;;;;;;;;;1.36;100.00;98484.47;5002448;28;19941;-66
2023/02/05 08:34:14;;;;;;;;;;;;;;;1.40;100.00;98482.06;4997828;28;19929;-67
2023/02/05 08:36:41;;;;;;;;;;;;;;;1.43;100.00;98468.84;4997456;28;19921;-66
2023/02/05 08:39:12;;;;;;;;;;;;;;;1.55;100.00;98474.03;5004154;28;19921;-67
2023/02/05 08:41:43;;;;;;;;;;;;;;;1.53;100.00;98465.38;5015972;28;19979;-66
2023/02/05 08:44:17;;;;;;;;;;;;;;;1.64;100.00;98467.06;5000216;28;19922;-68
2023/02/05 08:46:43;;;;;;;;;;;;;;;1.49;100.00;98475.88;5019383;28;19987;-66
2023/02/05 08:49:19;;;;;;;;;;;;;;;;;;;;;
2023/02/05 08:51:47;;;;;;;;;;;;;;;0.97;100.00;98471.31;4989639;28;19921;-66
2023/02/05 08:54:16;;;;;;;;;;;;;;;0.61;100.00;98468.34;4997559;28;19970;-66
2023/02/05 08:56:48;;;;;;;;;;;;;;;0.56;100.00;98454.88;4994664;28;19921;-66
2023/02/05 08:59:13;;;;;;;;;;;;;;;0.52;100.00;98453.72;4983395;28;19921;-66
2023/02/05 09:01:40;;;;;;;;;;;;;;;0.67;100.00;98450.34;4998227;28;19925;-65
2023/02/05 09:04:06;;;;;;;;;;;;;;;1.13;100.00;98456.00;5014855;28;19960;-66
2023/02/05 09:06:32;;;;;;;;;;;;;;;1.48;100.00;98444.56;5021780;28;20021;-66
2023/02/05 09:09:02;;;;;;;;;;;;;;;1.80;100.00;98435.50;5027932;28;19947;-66
2023/02/05 09:11:29;;;;;;;;;;;;;;;1.98;100.00;98444.16;4951192;28;20015;-66
2023/02/05 09:13:55;;;;;;;;;;;;;;;2.27;100.00;98439.88;5010332;28;19924;-66
2023/02/05 09:16:23;;;;;;;;;;;;;;;2.67;100.00;98432.81;5002810;28;20399;-67
2023/02/05 09:18:48;;;;;;;;;;;;;;;2.87;100.00;98420.34;5011458;28;20628;-67
2023/02/05 09:21:14;;;;;;;;;;;;;;;2.98;100.00;98418.44;5016708;28;19917;-67
2023/02/05 09:23:39;;;;;;;;;;;;;;;3.01;100.00;98421.41;5021337;28;19979;-68
2023/02/05 09:26:07;;;;;;;;;;;;;;;3.28;100.00;98419.41;4999265;28;19921;-68
2023/02/05 09:28:32;;;;;;;;;;;;;;;3.41;100.00;98430.47;4996903;28;19917;-67
2023/02/05 09:30:57;;;;;;;;;;;;;;;3.53;100.00;98430.16;5032427;28;20054;-67
2023/02/05 09:33:23;;;;;;;;;;;;;;;3.60;100.00;98429.84;5018347;28;19928;-68
2023/02/05 09:35:48;;;;;;;;;;;;;;;3.53;100.00;98416.63;5021416;28;20299;-67
2023/02/05 09:38:17;;;;;;;;;;;;;;;3.70;100.00;98410.81;5013156;28;19924;-67
2023/02/05 09:40:58;;;;;;;;;;;;;;;3.39;100.00;98410.19;5002015;28;19967;-69
2023/02/05 09:43:42;;;;;;;;;;;;;;;3.51;100.00;98405.25;5018735;28;20192;-67
2023/02/05 09:46:10;;;;;;;;;;;;;;;3.77;100.00;98400.47;5019214;28;19917;-68
2023/02/05 09:48:38;;;;;;;;;;;;;;;3.96;100.00;98388.97;5018705;28;19990;-68
2023/02/05 09:51:06;;;;;;;;;;;;;;;3.99;100.00;98385.69;5020485;28;19932;-67
2023/02/05 09:53:39;;;;;;;;;;;;;;;3.90;100.00;98380.06;5024647;28;19928;-66
2023/02/05 09:56:06;;;;;;;;;;;;;;;3.76;100.00;98370.94;5000277;28;20329;-67
2023/02/05 09:58:34;;;;;;;;;;;;;;;3.96;100.00;98372.69;5024095;28;19924;-67
2023/02/05 10:01:02;;;;;;;;;;;;;;;4.47;100.00;98360.66;5025765;28;19970;-66
2023/02/05 10:03:43;;;;;;;;;;;;;;;4.50;100.00;98354.63;5038268;28;19917;-68
2023/02/05 10:06:08;;;;;;;;;;;;;;;4.89;100.00;98354.50;5037310;28;19966;-67
2023/02/05 10:08:38;;;;;;;;;;;;;;;5.42;99.13;98342.72;5020670;28;20345;-68
2023/02/05 10:11:07;;;;;;;;;;;;;;;5.11;99.11;98340.41;5010496;28;20079;-66
2023/02/05 10:13:39;;;;;;;;;;;;;;;4.67;100.00;98335.19;5025000;28;19921;-67
2023/02/05 10:16:04;;;;;;;;;;;;;;;4.42;100.00;98325.41;5019925;28;19922;-67
2023/02/05 10:18:35;;;;;;;;;;;;;;;4.26;100.00;98322.03;5024649;28;19924;-70
2023/02/05 10:21:13;;;;;;;;;;;;;;;4.27;100.00;98320.94;5024855;28;20325;-67
2023/02/05 10:23:39;;;;;;;;;;;;;;;4.09;100.00;98320.56;5006108;28;20386;-67
2023/02/05 10:26:08;;;;;;;;;;;;;;;4.14;100.00;98316.97;5019643;28;19932;-71
2023/02/05 10:28:34;;;;;;;;;;;;;;;4.07;100.00;98311.91;5023814;28;19921;-71
2023/02/05 10:31:03;;;;;;;;;;;;;;;4.18;100.00;98304.47;5007709;28;20372;-71
2023/02/05 10:33:45;;;;;;;;;;;;;;;4.42;100.00;98298.28;5021610;28;19917;-71
2023/02/05 10:36:11;;;;;;;;;;;;;;;4.20;100.00;98307.72;5017873;28;19921;-70
2023/02/05 10:38:40;;;;;;;;;;;;;;;4.20;100.00;98303.09;5024028;28;19917;-72
2023/02/05 10:41:11;;;;;;;;;;;;;;;4.39;100.00;98305.91;5018964;28;19943;-68
2023/02/05 10:43:43;;;;;;;;;;;;;;;4.67;100.00;98311.56;5023374;28;19921;-71
2023/02/05 10:46:12;;;;;;;;;;;;;;;4.55;100.00;98303.03;5017292;28;20067;-72
2023/02/05 10:48:44;;;;;;;;;;;;;;;4.12;100.00;98302.91;5024082;28;20433;-71
2023/02/05 10:51:12;;;;;;;;;;;;;;;4.11;100.00;98307.53;5019790;28;20067;-72
2023/02/05 10:53:41;;;;;;;;;;;;;;;4.28;100.00;98304.38;5008001;28;20386;-70
2023/02/05 10:56:06;;;;;;;;;;;;;;;4.32;100.00;98300.00;5031544;28;19921;-72
2023/02/05 10:58:50;;;;;;;;;;;;;;;4.53;100.00;98306.03;5021803;28;19917;-71
2023/02/05 11:01:17;;;;;;;;;;;;;;;4.65;100.00;98302.13;5019584;28;19944;-71
2023/02/05 11:04:01;;;;;;;;;;;;;;;4.67;100.00;98291.78;5039098;28;20012;-70
2023/02/05 11:06:29;;;;;;;;;;;;;;;4.43;100.00;98291.75;5015572;28;19985;-70
2023/02/05 11:08:54;;;;;;;;;;;;;;;4.46;100.00;98293.91;5043343;28;20022;-71
2023/02/05 11:11:28;;;;;;;;;;;;;;;4.46;100.00;98285.75;5039192;28;19988;-70
2023/02/05 11:13:57;;;;;;;;;;;;;;;4.67;100.00;98294.50;5043443;28;20294;-70
2023/02/05 11:16:32;;;;;;;;;;;;;;;4.84;100.00;98289.38;4999245;28;20337;-69
2023/02/05 11:18:59;;;;;;;;;;;;;;;5.21;100.00;98287.84;5003419;28;19980;-69
2023/02/05 11:21:44;;;;;;;;;;;;;;;5.36;100.00;98287.63;4998817;28;20012;-69
2023/02/05 11:24:20;;;;;;;;;;;;;;;5.28;100.00;98282.84;4997686;28;19922;-69
2023/02/05 11:26:48;;;;;;;;;;;;;;;5.28;100.00;98287.50;5003431;28;20219;-69
2023/02/05 11:29:19;;;;;;;;;;;;;;;5.22;100.00;98284.03;4999072;28;20298;-69
2023/02/05 11:31:45;;;;;;;;;;;;;;;5.15;100.00;98273.53;5003960;28;19933;-69
2023/02/05 11:34:13;;;;;;;;;;;;;;;5.27;100.00;98283.16;4998445;28;20522;-69
2023/02/05 11:36:47;;;;;;;;;;;;;;;5.36;100.00;98275.94;5002616;28;20406;-69
2023/02/05 11:39:34;;;;;;;;;;;;;;;5.30;100.00;98267.06;4999596;28;20484;-68
2023/02/05 11:42:08;;;;;;;;;;;;;;;5.45;100.00;98271.47;5004079;28;20004;-69
2023/02/05 11:44:35;;;;;;;;;;;;;;;5.47;99.60;98271.97;5002079;28;19976;-68
2023/02/05 11:47:01;;;;;;;;;;;;;;;5.16;99.36;98266.19;5003583;28;19917;-69
2023/02/05 11:49:34;;;;;;;;;;;;;;;5.12;99.76;98263.25;4978027;28;20646;-69
2023/02/05 11:52:06;;;;;;;;;;;;;;;5.30;99.98;98274.41;5003424;28;20008;-68
2023/02/05 11:54:32;;;;;;;;;;;;;;;5.43;100.00;98268.22;5001196;28;19925;-68
2023/02/05 11:57:01;;;;;;;;;;;;;;;5.39;97.73;98267.22;5002341;28;20421;-69
2023/02/05 11:59:26;;;;;;;;;;;;;;;5.37;97.83;98258.56;4998313;28;20022;-68
2023/02/05 12:01:51;;;;;;;;;;;;;;;5.51;96.28;98256.72;5022838;28;19967;-69
2023/02/05 12:04:18;;;;;;;;;;;;;;;5.39;96.80;98252.81;5024917;28;20020;-68
2023/02/05 12:06:50;;;;;;;;;;;;;;;5.32;98.35;98255.91;5013923;28;19921;-69
2023/02/05 12:09:26;;;;;;;;;;;;;;;5.27;96.37;98261.41;5036833;28;19917;-68
2023/02/05 12:12:20;;;;;;;;;;;;;;;4.78;98.59;98261.50;5041887;28;19917;-69
2023/02/05 12:14:50;;;;;;;;;;;;;;;5.01;99.45;98260.97;5029800;28;20271;-69
2023/02/05 12:17:21;;;;;;;;;;;;;;;4.94;100.00;98258.59;4999886;28;19980;-70
2023/02/05 12:19:53;;;;;;;;;;;;;;;5.01;100.00;98253.63;5016707;28;19925;-69
2023/02/05 12:22:37;;;;;;;;;;;;;;;5.08;99.79;98253.28;4998554;28;19924;-69
2023/02/05 12:25:15;;;;;;;;;;;;;;;5.34;97.02;98251.78;5000066;28;20371;-70
2023/02/05 12:27:43;;;;;;;;;;;;;;;5.40;94.72;98252.50;5000310;28;19968;-70
2023/02/05 12:30:27;;;;;;;;;;;;;;;5.24;94.38;98248.41;4995821;28;19921;-69
2023/02/05 12:32:52;;;;;;;;;;;;;;;5.38;94.80;98251.19;5002972;28;20404;-70
2023/02/05 12:35:20;;;;;;;;;;;;;;;5.08;95.44;98254.06;4997169;28;20022;-69
2023/02/05 12:38:02;;;;;;;;;;;;;;;4.79;96.74;98248.75;5001636;28;20378;-69
2023/02/05 12:40:50;;;;;;;;;;;;;;;4.75;98.51;98248.53;4981285;28;19922;-69
2023/02/05 12:43:27;;;;;;;;;;;;;;;4.41;99.96;98245.91;4997984;28;19994;-70
2023/02/05 12:45:59;;;;;;;;;;;;;;;4.42;100.00;98249.44;4981588;28;19922;-69
2023/02/05 12:48:39;;;;;;;;;;;;;;;4.34;100.00;98251.69;4997265;28;20020;-70
2023/02/05 12:51:15;;;;;;;;;;;;;;;4.27;100.00;98251.25;4996751;28;20369;-70
2023/02/05 12:53:58;;;;;;;;;;;;;;;4.26;100.00;98243.38;5003446;28;19939;-68
2023/02/05 12:56:30;;;;;;;;;;;;;;;4.34;100.00;98229.16;4993248;28;20645;-70
2023/02/05 12:59:01;;;;;;;;;;;;;;;4.04;100.00;98238.47;5008795;28;19917;-70